createdAt,value
2022-08-05T00:00:20.840Z,26.92
2022-08-05T00:03:08.568Z,26.87
2022-08-05T00:06:05.198Z,26.85
2022-08-05T00:08:36.152Z,26.83
2022-08-05T00:11:23.737Z,26.82
2022-08-05T00:13:58.979Z,26.80
2022-08-05T00:16:35.673Z,26.76
2022-08-05T00:19:06.232Z,26.72
2022-08-05T00:21:36.162Z,26.69
2022-08-05T00:24:11.007Z,26.67
2022-08-05T00:26:50.525Z,26.65
2022-08-05T00:29:25.211Z,26.64
2022-08-05T00:32:13.109Z,26.62
2022-08-05T00:35:05.288Z,26.59
2022-08-05T00:37:35.402Z,26.57
2022-08-05T00:40:17.830Z,26.55
2022-08-05T00:42:59.201Z,26.55
2022-08-05T00:45:38.675Z,26.55
2022-08-05T00:48:14.412Z,26.52
2022-08-05T00:50:46.136Z,26.48
2022-08-05T00:54:01.350Z,26.46
2022-08-05T00:56:08.888Z,26.44
2022-08-05T00:58:38.953Z,26.42
2022-08-05T01:01:14.918Z,26.40
2022-08-05T01:03:44.360Z,26.39
2022-08-05T01:06:19.295Z,26.37
2022-08-05T01:08:49.055Z,26.35
2022-08-05T01:11:36.678Z,26.35
2022-08-05T01:14:15.269Z,26.34
2022-08-05T01:16:52.308Z,26.31
2022-08-05T01:20:02.214Z,26.28
2022-08-05T01:22:47.340Z,26.27
2022-08-05T01:25:53.361Z,26.26
2022-08-05T01:28:27.917Z,26.23
2022-08-05T01:31:06.391Z,26.23
2022-08-05T01:33:49.322Z,26.24
2022-08-05T01:36:30.058Z,26.24
2022-08-05T01:39:02.063Z,26.25
2022-08-05T01:41:44.356Z,26.23
2022-08-05T01:44:19.252Z,26.13
2022-08-05T01:46:50.379Z,25.97
2022-08-05T01:49:24.972Z,25.88
2022-08-05T01:52:01.217Z,25.79
2022-08-05T01:54:46.225Z,25.65
2022-08-05T01:58:13.737Z,25.50
2022-08-05T02:00:12.373Z,25.40
2022-08-05T02:02:46.505Z,25.38
2022-08-05T02:05:28.596Z,25.42
2022-08-05T02:08:01.249Z,25.42
2022-08-05T02:10:36.681Z,25.35
2022-08-05T02:13:16.120Z,25.28
2022-08-05T02:15:50.253Z,25.22
2022-08-05T02:18:31.138Z,25.13
2022-08-05T02:21:15.134Z,25.04
2022-08-05T02:23:49.049Z,24.84
2022-08-05T02:26:23.721Z,24.65
2022-08-05T02:28:56.279Z,24.45
2022-08-05T02:31:35.013Z,24.29
2022-08-05T02:34:11.375Z,24.19
2022-08-05T02:36:48.146Z,24.05
2022-08-05T02:39:26.164Z,24.02
2022-08-05T02:42:03.027Z,23.97
2022-08-05T02:44:37.128Z,23.94
2022-08-05T02:47:09.024Z,23.88
2022-08-05T02:49:42.356Z,23.84
2022-08-05T02:52:29.487Z,23.78
2022-08-05T02:55:05.416Z,23.74
2022-08-05T02:58:09.337Z,23.64
2022-08-05T03:00:29.836Z,23.57
2022-08-05T03:03:01.076Z,23.51
2022-08-05T03:06:55.816Z,23.46
2022-08-05T03:08:27.101Z,23.37
2022-08-05T03:11:55.692Z,23.35
2022-08-05T03:13:52.238Z,23.36
2022-08-05T03:16:33.104Z,23.39
2022-08-05T03:19:12.763Z,23.37
2022-08-05T03:21:50.990Z,23.31
2022-08-05T03:24:29.488Z,23.26
2022-08-05T03:27:00.343Z,23.22
2022-08-05T03:29:45.444Z,23.19
2022-08-05T03:32:19.698Z,23.22
2022-08-05T03:34:50.619Z,23.25
2022-08-05T03:37:21.604Z,23.27
2022-08-05T03:40:03.833Z,23.24
2022-08-05T03:42:41.554Z,23.19
2022-08-05T03:45:23.400Z,23.11
2022-08-05T03:47:56.748Z,23.06
2022-08-05T03:50:29.534Z,23.04
2022-08-05T03:54:59.071Z,23.06
2022-08-05T03:56:31.841Z,23.12
2022-08-05T03:59:13.423Z,23.18
2022-08-05T04:01:59.094Z,23.17
2022-08-05T04:04:31.713Z,23.12
2022-08-05T04:07:02.087Z,23.09
2022-08-05T04:09:36.637Z,23.11
2022-08-05T04:12:24.600Z,23.14
2022-08-05T04:14:57.620Z,23.18
2022-08-05T04:17:55.720Z,23.23
2022-08-05T04:20:24.089Z,23.28
2022-08-05T04:22:53.345Z,23.33
2022-08-05T04:25:38.323Z,23.31
2022-08-05T04:28:13.151Z,23.26
2022-08-05T04:30:43.148Z,23.19
2022-08-05T04:33:12.821Z,23.15
2022-08-05T04:36:15.829Z,23.12
2022-08-05T04:38:39.961Z,23.11
2022-08-05T04:41:10.208Z,23.10
2022-08-05T04:43:48.037Z,23.14
2022-08-05T04:46:28.119Z,23.23
2022-08-05T04:48:58.907Z,23.28
2022-08-05T04:51:30.582Z,23.31
2022-08-05T04:54:02.308Z,23.35
2022-08-05T04:56:37.274Z,23.44
2022-08-05T04:59:24.165Z,23.54
2022-08-05T05:02:07.541Z,23.62
2022-08-05T05:04:49.892Z,23.67
2022-08-05T05:07:23.984Z,23.65
2022-08-05T05:10:03.889Z,23.62
2022-08-05T05:12:34.455Z,23.62
2022-08-05T05:15:11.075Z,23.69
2022-08-05T05:17:56.840Z,23.74
2022-08-05T05:20:28.653Z,23.82
2022-08-05T05:23:08.482Z,23.93
2022-08-05T05:25:49.618Z,24.04
2022-08-05T05:28:20.972Z,24.10
2022-08-05T05:30:50.280Z,24.17
2022-08-05T05:33:23.383Z,24.25
2022-08-05T05:35:52.764Z,24.33
2022-08-05T05:38:27.486Z,24.40
2022-08-05T05:40:57.927Z,24.47
2022-08-05T05:43:56.382Z,24.54
2022-08-05T05:46:17.987Z,24.57
2022-08-05T05:48:49.523Z,24.60
2022-08-05T05:51:23.450Z,24.66
2022-08-05T05:53:59.520Z,24.74
2022-08-05T05:56:32.732Z,24.82
2022-08-05T05:59:05.276Z,24.90
2022-08-05T06:01:38.687Z,24.99
2022-08-05T06:04:14.563Z,25.07
2022-08-05T06:06:47.291Z,25.15
2022-08-05T06:09:27.466Z,25.24
2022-08-05T06:12:12.250Z,25.32
2022-08-05T06:14:43.936Z,25.39
2022-08-05T06:17:24.543Z,25.48
2022-08-05T06:20:06.402Z,25.53
2022-08-05T06:22:50.803Z,25.60
2022-08-05T06:26:12.356Z,25.66
2022-08-05T06:28:23.015Z,25.74
2022-08-05T06:31:48.561Z,25.79
2022-08-05T06:34:22.626Z,25.86
2022-08-05T06:36:58.752Z,25.92
2022-08-05T06:39:30.792Z,26.01
2022-08-05T06:42:04.108Z,26.09
2022-08-05T06:44:39.093Z,26.18
2022-08-05T06:48:11.332Z,26.28
2022-08-05T06:50:05.313Z,26.38
2022-08-05T06:52:36.629Z,26.46
2022-08-05T06:55:16.055Z,26.54
2022-08-05T06:58:03.159Z,26.62
2022-08-05T07:00:34.846Z,26.69
2022-08-05T07:03:04.491Z,26.75
2022-08-05T07:05:41.167Z,26.82
2022-08-05T07:08:11.207Z,26.88
2022-08-05T07:10:53.012Z,26.94
2022-08-05T07:13:58.256Z,27.01
2022-08-05T07:18:01.082Z,27.07
2022-08-05T07:22:28.406Z,27.17
2022-08-05T07:25:22.111Z,27.22
2022-08-05T07:28:12.051Z,27.29
2022-08-05T07:31:07.578Z,27.36
2022-08-05T07:33:55.948Z,27.43
2022-08-05T07:36:33.007Z,27.50
2022-08-05T07:39:03.419Z,27.56
2022-08-05T07:42:12.992Z,27.59
2022-08-05T07:44:27.691Z,27.64
2022-08-05T07:47:14.807Z,27.68
2022-08-05T07:50:26.459Z,27.72
2022-08-05T07:53:05.136Z,27.78
2022-08-05T07:56:06.091Z,27.81
2022-08-05T07:58:54.759Z,27.86
2022-08-05T08:01:29.879Z,27.90
2022-08-05T08:03:59.646Z,27.95
2022-08-05T08:06:32.109Z,27.97
2022-08-05T08:09:01.407Z,27.99
2022-08-05T08:11:53.487Z,28.00
2022-08-05T08:14:27.793Z,28.05
2022-08-05T08:16:59.464Z,28.10
2022-08-05T08:20:43.642Z,28.15
2022-08-05T08:22:29.540Z,28.21
2022-08-05T08:26:08.766Z,28.26
2022-08-05T08:28:36.774Z,28.29
2022-08-05T08:31:17.632Z,28.34
2022-08-05T08:33:51.757Z,28.39
2022-08-05T08:36:38.708Z,28.45
2022-08-05T08:39:17.352Z,28.50
2022-08-05T08:41:59.700Z,28.54
2022-08-05T08:45:22.151Z,28.54
2022-08-05T08:48:06.980Z,28.54
2022-08-05T08:50:33.033Z,28.56
2022-08-05T08:53:12.127Z,28.59
2022-08-05T08:56:03.542Z,28.64
2022-08-05T08:58:37.491Z,28.68
2022-08-05T09:01:16.561Z,28.72
2022-08-05T09:03:55.671Z,28.75
2022-08-05T09:06:29.629Z,28.77
2022-08-05T09:09:01.904Z,28.80
2022-08-05T09:11:51.759Z,28.84
2022-08-05T09:14:58.582Z,28.90
2022-08-05T09:17:43.057Z,28.98
2022-08-05T09:21:20.831Z,29.04
2022-08-05T09:23:46.655Z,29.09
2022-08-05T09:26:22.175Z,29.15
2022-08-05T09:29:17.595Z,29.23
2022-08-05T09:32:40.771Z,29.33
2022-08-05T09:35:09.828Z,29.40
2022-08-05T09:38:12.375Z,29.45
2022-08-05T09:40:52.316Z,29.56
2022-08-05T09:43:41.322Z,29.63
2022-08-05T09:46:27.708Z,29.73
2022-08-05T09:49:06.727Z,29.81
2022-08-05T09:51:41.825Z,29.83
2022-08-05T09:54:14.844Z,29.86
2022-08-05T09:56:52.297Z,29.93
2022-08-05T09:59:27.725Z,29.98
2022-08-05T10:02:03.032Z,30.04
2022-08-05T10:04:39.453Z,30.07
2022-08-05T10:07:20.294Z,30.11
2022-08-05T10:10:14.250Z,30.14
2022-08-05T10:12:51.961Z,30.19
2022-08-05T10:15:26.085Z,30.23
2022-08-05T10:18:14.318Z,30.27
2022-08-05T10:20:52.571Z,30.32
2022-08-05T10:23:55.801Z,30.34
2022-08-05T10:26:14.473Z,30.38
2022-08-05T10:29:02.192Z,30.45
2022-08-05T10:32:54.813Z,30.55
2022-08-05T10:34:25.583Z,30.65
2022-08-05T10:37:00.484Z,30.76
2022-08-05T10:39:59.048Z,30.86
2022-08-05T10:42:34.305Z,30.93
2022-08-05T10:45:21.016Z,30.99
2022-08-05T10:48:31.726Z,31.05
2022-08-05T10:51:21.824Z,31.10
2022-08-05T10:54:01.631Z,31.17
2022-08-05T10:56:44.845Z,31.20
2022-08-05T11:00:02.103Z,31.22
2022-08-05T11:02:34.402Z,31.23
2022-08-05T11:05:00.231Z,31.28
2022-08-05T11:08:01.252Z,31.29
2022-08-05T11:10:27.753Z,31.30
2022-08-05T11:12:59.301Z,31.33
2022-08-05T11:15:59.362Z,31.41
2022-08-05T11:18:33.978Z,31.48
2022-08-05T11:21:11.256Z,31.56
2022-08-05T11:24:04.886Z,31.65
2022-08-05T11:26:35.168Z,31.68
2022-08-05T11:29:31.839Z,31.66
2022-08-05T11:32:25.551Z,31.65
2022-08-05T11:34:58.160Z,31.72
2022-08-05T11:38:29.336Z,31.79
2022-08-05T11:41:12.876Z,31.92
2022-08-05T11:44:06.951Z,32.00
2022-08-05T11:46:58.233Z,32.03
2022-08-05T11:49:28.427Z,32.05
2022-08-05T11:51:59.588Z,32.10
2022-08-05T11:54:34.491Z,32.12
2022-08-05T11:57:08.470Z,32.08
2022-08-05T11:59:57.824Z,32.12
2022-08-05T12:02:33.026Z,32.17
2022-08-05T12:05:08.270Z,32.20
2022-08-05T12:08:09.492Z,32.20
2022-08-05T12:10:45.532Z,32.22
2022-08-05T12:13:28.042Z,32.27
2022-08-05T12:16:14.484Z,32.36
2022-08-05T12:18:52.170Z,32.44
2022-08-05T12:21:26.959Z,32.55
2022-08-05T12:24:07.500Z,32.68
2022-08-05T12:26:48.159Z,32.82
2022-08-05T12:29:22.780Z,32.97
2022-08-05T12:31:56.556Z,33.13
2022-08-05T12:34:33.407Z,33.25
2022-08-05T12:37:29.813Z,33.37
2022-08-05T12:40:03.150Z,33.50
2022-08-05T12:42:33.206Z,33.53
2022-08-05T12:45:11.522Z,33.62
2022-08-05T12:47:43.552Z,33.73
2022-08-05T12:50:33.169Z,33.78
2022-08-05T12:53:04.754Z,33.86
2022-08-05T12:55:35.300Z,34.02
2022-08-05T12:58:38.657Z,34.18
2022-08-05T13:02:02.288Z,34.50
2022-08-05T13:04:07.454Z,34.90
2022-08-05T13:06:50.746Z,35.19
2022-08-05T13:09:27.852Z,35.42
2022-08-05T13:12:04.618Z,35.64
2022-08-05T13:14:40.393Z,35.88
2022-08-05T13:17:31.559Z,36.10
2022-08-05T13:20:11.871Z,36.27
2022-08-05T13:22:42.914Z,36.34
2022-08-05T13:25:19.105Z,36.32
2022-08-05T13:27:55.584Z,36.14
2022-08-05T13:30:34.629Z,35.99
2022-08-05T13:33:07.714Z,36.02
2022-08-05T13:35:43.297Z,36.17
2022-08-05T13:38:30.897Z,36.33
2022-08-05T13:41:06.679Z,36.45
2022-08-05T13:43:44.219Z,36.59
2022-08-05T13:46:35.715Z,36.73
2022-08-05T13:49:10.253Z,36.84
2022-08-05T13:51:46.175Z,36.89
2022-08-05T13:54:21.211Z,37.03
2022-08-05T13:56:57.633Z,37.23
2022-08-05T13:59:30.623Z,37.15
2022-08-05T14:02:02.322Z,36.81
2022-08-05T14:04:52.019Z,36.53
2022-08-05T14:07:26.099Z,36.28
2022-08-05T14:10:30.632Z,36.09
2022-08-05T14:13:01.067Z,36.02
2022-08-05T14:16:07.006Z,35.97
2022-08-05T14:18:45.077Z,36.04
2022-08-05T14:21:23.845Z,36.25
2022-08-05T14:24:13.983Z,36.54
2022-08-05T14:27:02.271Z,36.51
2022-08-05T14:29:43.504Z,36.61
2022-08-05T14:32:17.111Z,36.88
2022-08-05T14:34:57.693Z,37.22
2022-08-05T14:37:45.342Z,37.51
2022-08-05T14:40:18.016Z,37.68
2022-08-05T14:42:47.811Z,37.76
2022-08-05T14:45:18.349Z,37.77
2022-08-05T14:48:02.928Z,37.71
2022-08-05T14:50:39.797Z,37.64
2022-08-05T14:53:16.155Z,37.60
2022-08-05T14:55:52.557Z,37.50
2022-08-05T14:58:23.959Z,37.37
2022-08-05T15:00:58.388Z,37.37
2022-08-05T15:03:39.241Z,37.31
2022-08-05T15:06:27.921Z,37.42
2022-08-05T15:09:03.932Z,37.63
2022-08-05T15:11:53.178Z,37.71
2022-08-05T15:14:34.678Z,37.81
2022-08-05T15:17:44.338Z,37.91
2022-08-05T15:20:00.467Z,37.67
2022-08-05T15:22:29.814Z,37.48
2022-08-05T15:24:59.362Z,37.35
2022-08-05T15:27:36.035Z,37.28
2022-08-05T15:30:10.246Z,37.26
2022-08-05T15:32:50.679Z,37.25
2022-08-05T15:35:21.979Z,37.32
2022-08-05T15:38:32.904Z,37.45
2022-08-05T15:41:20.914Z,37.67
2022-08-05T15:43:45.420Z,37.89
2022-08-05T15:46:16.312Z,38.09
2022-08-05T15:48:54.788Z,38.30
2022-08-05T15:52:10.394Z,38.51
2022-08-05T15:54:35.118Z,38.65
2022-08-05T15:57:07.935Z,38.75
2022-08-05T15:59:38.933Z,38.75
2022-08-05T16:02:14.775Z,38.75
2022-08-05T16:04:49.150Z,38.80
2022-08-05T16:07:18.393Z,38.87
2022-08-05T16:09:52.029Z,38.93
2022-08-05T16:12:23.550Z,38.97
2022-08-05T16:14:53.254Z,38.99
2022-08-05T16:17:22.676Z,39.01
2022-08-05T16:20:04.312Z,39.03
2022-08-05T16:22:40.072Z,39.02
2022-08-05T16:25:11.341Z,39.00
2022-08-05T16:28:00.252Z,39.00
2022-08-05T16:30:30.425Z,39.00
2022-08-05T16:33:01.759Z,38.99
2022-08-05T16:35:32.347Z,38.99
2022-08-05T16:38:24.632Z,38.97
2022-08-05T16:40:59.654Z,38.93
2022-08-05T16:43:31.590Z,38.85
2022-08-05T16:46:06.234Z,38.75
2022-08-05T16:48:43.740Z,38.64
2022-08-05T16:51:13.560Z,38.59
2022-08-05T16:54:04.897Z,38.52
2022-08-05T16:56:35.371Z,38.42
2022-08-05T16:59:09.647Z,38.34
2022-08-05T17:01:53.256Z,38.25
2022-08-05T17:04:26.726Z,38.17
2022-08-05T17:07:00.430Z,38.07
2022-08-05T17:09:57.251Z,37.96
2022-08-05T17:12:22.389Z,37.79
2022-08-05T17:14:52.360Z,37.67
2022-08-05T17:17:22.522Z,37.50
2022-08-05T17:19:55.444Z,37.34
2022-08-05T17:22:26.039Z,37.14
2022-08-05T17:25:00.135Z,36.93
2022-08-05T17:27:34.649Z,36.74
2022-08-05T17:30:12.171Z,36.56
2022-08-05T17:32:50.852Z,36.34
2022-08-05T17:35:21.000Z,36.15
2022-08-05T17:37:50.843Z,35.97
2022-08-05T17:40:22.497Z,35.83
2022-08-05T17:42:53.060Z,35.68
2022-08-05T17:45:25.005Z,35.52
2022-08-05T17:47:59.454Z,35.37
2022-08-05T17:50:30.829Z,35.19
2022-08-05T17:53:05.141Z,35.03
2022-08-05T17:55:39.694Z,34.85
2022-08-05T17:58:13.734Z,34.64
2022-08-05T18:00:51.023Z,34.45
2022-08-05T18:03:59.683Z,34.27
2022-08-05T18:06:14.980Z,34.10
2022-08-05T18:08:52.439Z,33.97
2022-08-05T18:11:33.567Z,33.83
2022-08-05T18:14:07.166Z,33.68
2022-08-05T18:16:51.091Z,33.56
2022-08-05T18:19:26.038Z,33.43
2022-08-05T18:22:08.266Z,33.33
2022-08-05T18:24:42.459Z,33.19
2022-08-05T18:27:18.426Z,33.09
2022-08-05T18:29:54.100Z,33.01
2022-08-05T18:32:27.873Z,32.90
2022-08-05T18:34:59.429Z,32.80
2022-08-05T18:37:33.346Z,32.72
2022-08-05T18:40:31.222Z,32.65
2022-08-05T18:42:57.706Z,32.56
2022-08-05T18:45:41.511Z,32.48
2022-08-05T18:48:12.116Z,32.39
2022-08-05T18:52:03.365Z,32.31
2022-08-05T18:54:08.860Z,32.17
2022-08-05T18:56:38.515Z,32.07
2022-08-05T18:59:43.032Z,31.97
2022-08-05T19:01:58.639Z,31.85
2022-08-05T19:04:29.716Z,31.77
2022-08-05T19:06:59.431Z,31.69
2022-08-05T19:09:29.118Z,31.63
2022-08-05T19:12:11.448Z,31.53
2022-08-05T19:15:00.831Z,31.47
2022-08-05T19:17:58.261Z,31.38
2022-08-05T19:20:21.333Z,31.28
2022-08-05T19:22:53.296Z,31.21
2022-08-05T19:25:30.677Z,31.13
2022-08-05T19:28:09.765Z,31.05
2022-08-05T19:30:42.358Z,30.96
2022-08-05T19:33:16.989Z,30.87
2022-08-05T19:36:06.224Z,30.79
2022-08-05T19:38:36.618Z,30.73
2022-08-05T19:41:08.945Z,30.67
2022-08-05T19:44:05.445Z,30.61
2022-08-05T19:46:31.327Z,30.54
2022-08-05T19:49:03.967Z,30.46
2022-08-05T19:52:08.725Z,30.37
2022-08-05T19:54:31.437Z,30.28
2022-08-05T19:57:06.553Z,30.15
2022-08-05T20:00:00.436Z,30.03
2022-08-05T20:02:33.402Z,29.98
2022-08-05T20:05:09.701Z,29.94
2022-08-05T20:07:49.238Z,29.91
2022-08-05T20:10:22.350Z,29.86
2022-08-05T20:12:57.984Z,29.79
2022-08-05T20:15:52.158Z,29.70
2022-08-05T20:18:32.741Z,29.65
2022-08-05T20:21:06.906Z,29.61
2022-08-05T20:23:51.119Z,29.54
2022-08-05T20:26:23.341Z,29.44
2022-08-05T20:28:56.899Z,29.37
2022-08-05T20:31:42.123Z,29.33
2022-08-05T20:34:25.710Z,29.32
2022-08-05T20:36:55.619Z,29.32
2022-08-05T20:39:36.675Z,29.33
2022-08-05T20:42:12.616Z,29.34
2022-08-05T20:44:46.035Z,29.33
2022-08-05T20:47:19.244Z,29.33
2022-08-05T20:50:02.516Z,29.32
2022-08-05T20:52:35.556Z,29.29
2022-08-05T20:55:56.693Z,29.28
2022-08-05T20:57:58.252Z,29.27
2022-08-05T21:00:54.691Z,29.28
2022-08-05T21:03:20.764Z,29.26
2022-08-05T21:05:54.670Z,29.25
2022-08-05T21:08:26.939Z,29.25
2022-08-05T21:11:10.182Z,29.23
2022-08-05T21:13:56.736Z,29.22
2022-08-05T21:16:30.909Z,29.21
2022-08-05T21:19:01.927Z,29.20
2022-08-05T21:21:43.785Z,29.19
2022-08-05T21:24:33.304Z,29.19
2022-08-05T21:27:03.940Z,29.19
2022-08-05T21:29:40.628Z,29.19
2022-08-05T21:32:10.550Z,29.18
2022-08-05T21:35:08.262Z,29.17
2022-08-05T21:37:41.322Z,29.15
2022-08-05T21:40:14.065Z,29.14
2022-08-05T21:42:44.733Z,29.13
2022-08-05T21:45:38.165Z,29.11
2022-08-05T21:48:08.235Z,29.10
2022-08-05T21:50:38.152Z,29.09
2022-08-05T21:53:16.629Z,29.07
2022-08-05T21:56:04.865Z,29.05
2022-08-05T21:58:57.125Z,29.02
2022-08-05T22:01:26.912Z,28.98
2022-08-05T22:03:56.195Z,28.95
2022-08-05T22:06:35.059Z,28.92
2022-08-05T22:09:13.166Z,28.91
2022-08-05T22:11:47.358Z,28.89
2022-08-05T22:14:38.232Z,28.88
2022-08-05T22:17:12.641Z,28.86
2022-08-05T22:20:02.076Z,28.85
2022-08-05T22:22:54.812Z,28.83
2022-08-05T22:26:09.996Z,28.81
2022-08-05T22:28:33.161Z,28.78
2022-08-05T22:31:05.575Z,28.76
2022-08-05T22:33:56.669Z,28.76
2022-08-05T22:36:24.652Z,28.73
2022-08-05T22:38:54.364Z,28.71
2022-08-05T22:42:04.611Z,28.69
2022-08-05T22:44:16.426Z,28.68
2022-08-05T22:46:50.668Z,28.71
2022-08-05T22:50:18.205Z,28.74
2022-08-05T22:52:15.450Z,28.75
2022-08-05T22:54:53.830Z,28.72
2022-08-05T22:57:30.541Z,28.69
2022-08-05T23:00:18.255Z,28.68
2022-08-05T23:02:52.765Z,28.64
2022-08-05T23:05:26.857Z,28.62
2022-08-05T23:07:57.865Z,28.60
2022-08-05T23:10:30.281Z,28.58
2022-08-05T23:13:00.588Z,28.55
2022-08-05T23:15:34.921Z,28.53
2022-08-05T23:18:11.681Z,28.51
2022-08-05T23:20:45.542Z,28.48
2022-08-05T23:23:14.813Z,28.46
2022-08-05T23:25:51.503Z,28.44
2022-08-05T23:28:29.448Z,28.42
2022-08-05T23:31:16.683Z,28.41
2022-08-05T23:34:04.732Z,28.38
2022-08-05T23:36:38.449Z,28.36
2022-08-05T23:39:10.271Z,28.34
2022-08-05T23:41:48.381Z,28.32
2022-08-05T23:44:19.751Z,28.29
2022-08-05T23:46:51.767Z,28.28
2022-08-05T23:49:33.743Z,28.28
2022-08-05T23:52:22.324Z,28.27
2022-08-05T23:54:55.780Z,28.24
2022-08-05T23:57:28.126Z,28.22
